sensor_id;sensor_type;location;lat;lon;timestamp;P1;durP1;ratioP1;P2;durP2;ratioP2
72379;SDS011;60354;47.798;12.472;2022-12-19T00:02:23;45.13;;;16.88;;
72379;SDS011;60354;47.798;12.472;2022-12-19T00:04:48;38.88;;;16.65;;
72379;SDS011;60354;47.798;12.472;2022-12-19T00:07:14;42.55;;;16.55;;
72379;SDS011;60354;47.798;12.472;2022-12-19T00:09:39;35.25;;;14.93;;
72379;SDS011;60354;47.798;12.472;2022-12-19T00:12:05;32.78;;;14.88;;
72379;SDS011;60354;47.798;12.472;2022-12-19T00:14:30;33.00;;;14.25;;
72379;SDS011;60354;47.798;12.472;2022-12-19T00:16:56;34.45;;;15.07;;
72379;SDS011;60354;47.798;12.472;2022-12-19T00:19:21;35.97;;;15.20;;
72379;SDS011;60354;47.798;12.472;2022-12-19T00:21:47;32.78;;;14.77;;
72379;SDS011;60354;47.798;12.472;2022-12-19T00:24:12;34.28;;;15.45;;
72379;SDS011;60354;47.798;12.472;2022-12-19T00:26:38;32.85;;;15.18;;
72379;SDS011;60354;47.798;12.472;2022-12-19T00:29:05;35.75;;;15.93;;
72379;SDS011;60354;47.798;12.472;2022-12-19T00:31:32;33.42;;;14.85;;
72379;SDS011;60354;47.798;12.472;2022-12-19T00:34:00;33.03;;;14.68;;
72379;SDS011;60354;47.798;12.472;2022-12-19T00:36:27;30.92;;;14.27;;
72379;SDS011;60354;47.798;12.472;2022-12-19T00:38:54;32.72;;;14.73;;
72379;SDS011;60354;47.798;12.472;2022-12-19T00:43:55;31.80;;;14.07;;
72379;SDS011;60354;47.798;12.472;2022-12-19T00:46:22;30.40;;;14.40;;
72379;SDS011;60354;47.798;12.472;2022-12-19T00:48:48;32.33;;;14.32;;
72379;SDS011;60354;47.798;12.472;2022-12-19T00:51:17;34.35;;;14.15;;
72379;SDS011;60354;47.798;12.472;2022-12-19T00:53:45;35.05;;;15.32;;
72379;SDS011;60354;47.798;12.472;2022-12-19T00:56:12;33.35;;;14.13;;
72379;SDS011;60354;47.798;12.472;2022-12-19T00:58:40;32.15;;;13.77;;
72379;SDS011;60354;47.798;12.472;2022-12-19T01:01:07;36.25;;;14.88;;
72379;SDS011;60354;47.798;12.472;2022-12-19T01:04:06;34.30;;;14.85;;
72379;SDS011;60354;47.798;12.472;2022-12-19T01:06:32;34.70;;;14.98;;
72379;SDS011;60354;47.798;12.472;2022-12-19T01:08:58;34.85;;;14.85;;
72379;SDS011;60354;47.798;12.472;2022-12-19T01:11:24;34.30;;;15.00;;
72379;SDS011;60354;47.798;12.472;2022-12-19T01:14:09;33.50;;;14.45;;
72379;SDS011;60354;47.798;12.472;2022-12-19T01:16:35;37.28;;;15.90;;
72379;SDS011;60354;47.798;12.472;2022-12-19T01:19:00;35.60;;;15.15;;
72379;SDS011;60354;47.798;12.472;2022-12-19T01:21:26;41.10;;;15.70;;
72379;SDS011;60354;47.798;12.472;2022-12-19T01:23:51;37.67;;;16.15;;
72379;SDS011;60354;47.798;12.472;2022-12-19T01:26:17;36.92;;;14.90;;
72379;SDS011;60354;47.798;12.472;2022-12-19T01:28:43;40.35;;;15.27;;
72379;SDS011;60354;47.798;12.472;2022-12-19T01:31:08;37.40;;;15.32;;
72379;SDS011;60354;47.798;12.472;2022-12-19T01:33:34;35.08;;;14.40;;
72379;SDS011;60354;47.798;12.472;2022-12-19T01:35:59;32.63;;;14.20;;
72379;SDS011;60354;47.798;12.472;2022-12-19T01:38:32;33.13;;;14.85;;
72379;SDS011;60354;47.798;12.472;2022-12-19T01:40:59;36.03;;;15.52;;
72379;SDS011;60354;47.798;12.472;2022-12-19T01:43:28;32.25;;;14.55;;
72379;SDS011;60354;47.798;12.472;2022-12-19T01:46:02;35.25;;;15.13;;
72379;SDS011;60354;47.798;12.472;2022-12-19T01:48:37;35.08;;;15.15;;
72379;SDS011;60354;47.798;12.472;2022-12-19T01:51:13;35.30;;;15.27;;
72379;SDS011;60354;47.798;12.472;2022-12-19T01:53:43;38.70;;;15.73;;
72379;SDS011;60354;47.798;12.472;2022-12-19T01:56:12;41.65;;;16.92;;
72379;SDS011;60354;47.798;12.472;2022-12-19T01:58:40;37.72;;;16.52;;
72379;SDS011;60354;47.798;12.472;2022-12-19T02:01:12;40.03;;;15.93;;
72379;SDS011;60354;47.798;12.472;2022-12-19T02:03:40;40.53;;;15.85;;
72379;SDS011;60354;47.798;12.472;2022-12-19T02:06:08;37.90;;;15.35;;
72379;SDS011;60354;47.798;12.472;2022-12-19T02:08:34;43.20;;;15.55;;
72379;SDS011;60354;47.798;12.472;2022-12-19T02:11:00;35.95;;;14.98;;
72379;SDS011;60354;47.798;12.472;2022-12-19T02:13:27;40.47;;;15.23;;
72379;SDS011;60354;47.798;12.472;2022-12-19T02:15:56;35.22;;;14.68;;
72379;SDS011;60354;47.798;12.472;2022-12-19T02:18:48;35.58;;;14.15;;
72379;SDS011;60354;47.798;12.472;2022-12-19T02:24:05;36.22;;;14.40;;
72379;SDS011;60354;47.798;12.472;2022-12-19T02:32:13;34.35;;;14.27;;
72379;SDS011;60354;47.798;12.472;2022-12-19T02:34:56;34.78;;;14.75;;
72379;SDS011;60354;47.798;12.472;2022-12-19T02:38:09;31.40;;;14.18;;
72379;SDS011;60354;47.798;12.472;2022-12-19T02:40:27;31.52;;;14.35;;
72379;SDS011;60354;47.798;12.472;2022-12-19T02:42:58;33.95;;;14.38;;
72379;SDS011;60354;47.798;12.472;2022-12-19T02:45:25;34.53;;;14.93;;
72379;SDS011;60354;47.798;12.472;2022-12-19T02:47:57;30.23;;;14.80;;
72379;SDS011;60354;47.798;12.472;2022-12-19T02:50:24;42.60;;;17.60;;
72379;SDS011;60354;47.798;12.472;2022-12-19T02:52:50;35.63;;;15.20;;
72379;SDS011;60354;47.798;12.472;2022-12-19T02:55:20;34.55;;;15.55;;
72379;SDS011;60354;47.798;12.472;2022-12-19T02:57:56;37.10;;;14.90;;
72379;SDS011;60354;47.798;12.472;2022-12-19T03:12:10;32.88;;;13.63;;
72379;SDS011;60354;47.798;12.472;2022-12-19T03:14:42;33.38;;;13.93;;
72379;SDS011;60354;47.798;12.472;2022-12-19T03:17:12;28.55;;;13.65;;
72379;SDS011;60354;47.798;12.472;2022-12-19T03:19:38;32.05;;;14.32;;
72379;SDS011;60354;47.798;12.472;2022-12-19T03:22:05;36.47;;;14.68;;
72379;SDS011;60354;47.798;12.472;2022-12-19T03:24:31;32.08;;;13.73;;
72379;SDS011;60354;47.798;12.472;2022-12-19T03:29:49;28.77;;;13.25;;
72379;SDS011;60354;47.798;12.472;2022-12-19T03:32:21;33.17;;;14.18;;
72379;SDS011;60354;47.798;12.472;2022-12-19T03:34:55;32.03;;;12.98;;
72379;SDS011;60354;47.798;12.472;2022-12-19T03:37:24;31.27;;;13.52;;
72379;SDS011;60354;47.798;12.472;2022-12-19T03:39:54;30.63;;;13.77;;
72379;SDS011;60354;47.798;12.472;2022-12-19T03:42:27;34.05;;;14.90;;
72379;SDS011;60354;47.798;12.472;2022-12-19T03:45:18;34.17;;;14.23;;
72379;SDS011;60354;47.798;12.472;2022-12-19T03:47:50;30.77;;;13.63;;
72379;SDS011;60354;47.798;12.472;2022-12-19T03:50:22;40.28;;;16.63;;
72379;SDS011;60354;47.798;12.472;2022-12-19T03:52:54;39.20;;;16.25;;
72379;SDS011;60354;47.798;12.472;2022-12-19T03:55:41;43.67;;;17.90;;
72379;SDS011;60354;47.798;12.472;2022-12-19T03:58:17;40.70;;;16.40;;
72379;SDS011;60354;47.798;12.472;2022-12-19T04:00:51;43.20;;;17.05;;
72379;SDS011;60354;47.798;12.472;2022-12-19T04:03:19;40.75;;;16.17;;
72379;SDS011;60354;47.798;12.472;2022-12-19T04:05:46;40.45;;;16.23;;
72379;SDS011;60354;47.798;12.472;2022-12-19T04:08:13;41.88;;;15.63;;
72379;SDS011;60354;47.798;12.472;2022-12-19T04:10:47;42.50;;;16.95;;
72379;SDS011;60354;47.798;12.472;2022-12-19T04:13:17;49.95;;;17.55;;
72379;SDS011;60354;47.798;12.472;2022-12-19T04:18:36;36.25;;;15.93;;
72379;SDS011;60354;47.798;12.472;2022-12-19T04:21:07;39.17;;;16.35;;
72379;SDS011;60354;47.798;12.472;2022-12-19T04:23:39;41.53;;;15.75;;
72379;SDS011;60354;47.798;12.472;2022-12-19T04:26:09;39.60;;;16.17;;
72379;SDS011;60354;47.798;12.472;2022-12-19T04:28:44;39.03;;;15.88;;
72379;SDS011;60354;47.798;12.472;2022-12-19T04:31:14;42.15;;;17.30;;
72379;SDS011;60354;47.798;12.472;2022-12-19T04:33:41;40.17;;;16.90;;
72379;SDS011;60354;47.798;12.472;2022-12-19T04:36:06;39.53;;;16.65;;
72379;SDS011;60354;47.798;12.472;2022-12-19T04:38:34;42.00;;;17.83;;
72379;SDS011;60354;47.798;12.472;2022-12-19T04:40:59;38.67;;;17.25;;
72379;SDS011;60354;47.798;12.472;2022-12-19T04:43:25;36.78;;;15.70;;
72379;SDS011;60354;47.798;12.472;2022-12-19T04:45:51;44.58;;;17.13;;
72379;SDS011;60354;47.798;12.472;2022-12-19T04:48:16;40.60;;;16.55;;
72379;SDS011;60354;47.798;12.472;2022-12-19T04:50:41;43.95;;;17.08;;
72379;SDS011;60354;47.798;12.472;2022-12-19T04:53:07;38.47;;;15.65;;
72379;SDS011;60354;47.798;12.472;2022-12-19T04:55:33;44.47;;;16.92;;
72379;SDS011;60354;47.798;12.472;2022-12-19T04:57:58;38.38;;;16.35;;
72379;SDS011;60354;47.798;12.472;2022-12-19T05:00:26;40.20;;;16.42;;
72379;SDS011;60354;47.798;12.472;2022-12-19T05:02:52;39.85;;;16.15;;
72379;SDS011;60354;47.798;12.472;2022-12-19T05:05:17;43.35;;;17.10;;
72379;SDS011;60354;47.798;12.472;2022-12-19T05:07:43;44.25;;;16.75;;
72379;SDS011;60354;47.798;12.472;2022-12-19T05:10:08;40.20;;;17.10;;
72379;SDS011;60354;47.798;12.472;2022-12-19T05:12:34;38.40;;;16.05;;
72379;SDS011;60354;47.798;12.472;2022-12-19T05:14:59;39.53;;;17.00;;
72379;SDS011;60354;47.798;12.472;2022-12-19T05:17:25;45.20;;;17.65;;
72379;SDS011;60354;47.798;12.472;2022-12-19T05:19:50;40.30;;;16.67;;
72379;SDS011;60354;47.798;12.472;2022-12-19T05:22:16;38.72;;;16.20;;
72379;SDS011;60354;47.798;12.472;2022-12-19T05:24:41;44.03;;;18.38;;
72379;SDS011;60354;47.798;12.472;2022-12-19T05:27:07;41.47;;;17.95;;
72379;SDS011;60354;47.798;12.472;2022-12-19T05:29:32;45.85;;;16.52;;
72379;SDS011;60354;47.798;12.472;2022-12-19T05:31:58;38.92;;;17.08;;
72379;SDS011;60354;47.798;12.472;2022-12-19T05:34:24;45.25;;;18.83;;
72379;SDS011;60354;47.798;12.472;2022-12-19T05:36:49;41.15;;;17.23;;
72379;SDS011;60354;47.798;12.472;2022-12-19T05:39:15;39.75;;;17.17;;
72379;SDS011;60354;47.798;12.472;2022-12-19T05:41:40;50.38;;;19.48;;
72379;SDS011;60354;47.798;12.472;2022-12-19T05:44:06;55.75;;;21.90;;
72379;SDS011;60354;47.798;12.472;2022-12-19T05:46:31;48.40;;;19.33;;
72379;SDS011;60354;47.798;12.472;2022-12-19T05:48:57;40.22;;;17.88;;
72379;SDS011;60354;47.798;12.472;2022-12-19T05:51:23;44.75;;;18.15;;
72379;SDS011;60354;47.798;12.472;2022-12-19T05:53:49;44.65;;;17.75;;
72379;SDS011;60354;47.798;12.472;2022-12-19T05:56:16;41.90;;;17.70;;
72379;SDS011;60354;47.798;12.472;2022-12-19T05:58:44;49.05;;;19.00;;
72379;SDS011;60354;47.798;12.472;2022-12-19T06:01:11;44.38;;;18.95;;
72379;SDS011;60354;47.798;12.472;2022-12-19T06:03:39;54.53;;;21.85;;
72379;SDS011;60354;47.798;12.472;2022-12-19T06:06:07;41.05;;;17.45;;
72379;SDS011;60354;47.798;12.472;2022-12-19T06:08:34;41.67;;;18.10;;
72379;SDS011;60354;47.798;12.472;2022-12-19T06:11:00;46.28;;;20.20;;
72379;SDS011;60354;47.798;12.472;2022-12-19T06:13:28;51.72;;;21.27;;
72379;SDS011;60354;47.798;12.472;2022-12-19T06:16:01;48.15;;;19.83;;
72379;SDS011;60354;47.798;12.472;2022-12-19T06:18:27;67.85;;;27.80;;
72379;SDS011;60354;47.798;12.472;2022-12-19T06:20:54;46.75;;;19.63;;
72379;SDS011;60354;47.798;12.472;2022-12-19T06:23:23;48.25;;;18.95;;
72379;SDS011;60354;47.798;12.472;2022-12-19T06:25:49;70.93;;;28.63;;
72379;SDS011;60354;47.798;12.472;2022-12-19T06:28:14;49.90;;;20.77;;
72379;SDS011;60354;47.798;12.472;2022-12-19T06:30:40;52.40;;;22.35;;
72379;SDS011;60354;47.798;12.472;2022-12-19T06:33:05;50.95;;;19.52;;
72379;SDS011;60354;47.798;12.472;2022-12-19T06:35:31;58.80;;;22.33;;
72379;SDS011;60354;47.798;12.472;2022-12-19T06:37:56;115.22;;;48.85;;
72379;SDS011;60354;47.798;12.472;2022-12-19T06:40:22;43.03;;;17.92;;
72379;SDS011;60354;47.798;12.472;2022-12-19T06:43:06;56.25;;;23.25;;
72379;SDS011;60354;47.798;12.472;2022-12-19T06:45:31;50.72;;;19.55;;
72379;SDS011;60354;47.798;12.472;2022-12-19T06:47:57;41.90;;;18.08;;
72379;SDS011;60354;47.798;12.472;2022-12-19T06:50:22;44.67;;;17.30;;
72379;SDS011;60354;47.798;12.472;2022-12-19T06:52:48;40.88;;;15.95;;
72379;SDS011;60354;47.798;12.472;2022-12-19T06:55:13;39.28;;;15.60;;
72379;SDS011;60354;47.798;12.472;2022-12-19T06:57:39;42.97;;;17.08;;
72379;SDS011;60354;47.798;12.472;2022-12-19T07:00:11;40.88;;;16.92;;
72379;SDS011;60354;47.798;12.472;2022-12-19T07:02:37;51.22;;;18.42;;
72379;SDS011;60354;47.798;12.472;2022-12-19T07:05:05;45.70;;;18.38;;
72379;SDS011;60354;47.798;12.472;2022-12-19T07:07:31;40.13;;;17.55;;
72379;SDS011;60354;47.798;12.472;2022-12-19T07:09:57;42.30;;;17.05;;
72379;SDS011;60354;47.798;12.472;2022-12-19T07:12:23;37.67;;;17.02;;
72379;SDS011;60354;47.798;12.472;2022-12-19T07:14:49;60.70;;;21.25;;
72379;SDS011;60354;47.798;12.472;2022-12-19T07:17:14;61.50;;;20.60;;
72379;SDS011;60354;47.798;12.472;2022-12-19T07:19:40;47.67;;;18.60;;
72379;SDS011;60354;47.798;12.472;2022-12-19T07:22:06;44.60;;;19.00;;
72379;SDS011;60354;47.798;12.472;2022-12-19T07:24:32;43.50;;;18.60;;
72379;SDS011;60354;47.798;12.472;2022-12-19T07:26:59;45.88;;;19.98;;
72379;SDS011;60354;47.798;12.472;2022-12-19T07:29:24;42.85;;;18.38;;
72379;SDS011;60354;47.798;12.472;2022-12-19T07:31:50;41.33;;;18.98;;
72379;SDS011;60354;47.798;12.472;2022-12-19T07:34:16;42.72;;;19.83;;
72379;SDS011;60354;47.798;12.472;2022-12-19T07:36:41;42.35;;;17.27;;
72379;SDS011;60354;47.798;12.472;2022-12-19T07:39:07;47.78;;;20.30;;
72379;SDS011;60354;47.798;12.472;2022-12-19T07:41:34;67.22;;;24.98;;
72379;SDS011;60354;47.798;12.472;2022-12-19T07:44:01;61.00;;;23.23;;
72379;SDS011;60354;47.798;12.472;2022-12-19T07:46:27;55.95;;;22.60;;
72379;SDS011;60354;47.798;12.472;2022-12-19T07:48:54;48.97;;;20.23;;
72379;SDS011;60354;47.798;12.472;2022-12-19T07:51:22;57.88;;;23.35;;
72379;SDS011;60354;47.798;12.472;2022-12-19T07:53:47;71.78;;;29.80;;
72379;SDS011;60354;47.798;12.472;2022-12-19T07:56:13;83.80;;;32.47;;
72379;SDS011;60354;47.798;12.472;2022-12-19T07:58:39;80.70;;;32.90;;
72379;SDS011;60354;47.798;12.472;2022-12-19T08:01:05;50.50;;;22.27;;
72379;SDS011;60354;47.798;12.472;2022-12-19T08:03:31;42.60;;;18.67;;
72379;SDS011;60354;47.798;12.472;2022-12-19T08:06:01;45.60;;;19.27;;
72379;SDS011;60354;47.798;12.472;2022-12-19T08:08:28;40.50;;;17.60;;
72379;SDS011;60354;47.798;12.472;2022-12-19T08:10:54;41.45;;;18.17;;
72379;SDS011;60354;47.798;12.472;2022-12-19T08:13:21;41.38;;;18.38;;
72379;SDS011;60354;47.798;12.472;2022-12-19T08:15:47;36.80;;;16.85;;
72379;SDS011;60354;47.798;12.472;2022-12-19T08:18:12;42.20;;;18.10;;
72379;SDS011;60354;47.798;12.472;2022-12-19T08:20:38;37.47;;;17.35;;
72379;SDS011;60354;47.798;12.472;2022-12-19T08:23:03;40.85;;;16.67;;
72379;SDS011;60354;47.798;12.472;2022-12-19T08:25:29;46.60;;;21.38;;
72379;SDS011;60354;47.798;12.472;2022-12-19T08:27:54;44.42;;;20.83;;
72379;SDS011;60354;47.798;12.472;2022-12-19T08:30:19;44.42;;;21.67;;
72379;SDS011;60354;47.798;12.472;2022-12-19T08:32:45;41.10;;;18.40;;
72379;SDS011;60354;47.798;12.472;2022-12-19T08:35:11;41.60;;;18.60;;
72379;SDS011;60354;47.798;12.472;2022-12-19T08:37:37;43.60;;;19.27;;
72379;SDS011;60354;47.798;12.472;2022-12-19T08:40:02;35.53;;;16.63;;
72379;SDS011;60354;47.798;12.472;2022-12-19T08:42:28;41.33;;;17.50;;
72379;SDS011;60354;47.798;12.472;2022-12-19T08:44:54;51.40;;;20.13;;
72379;SDS011;60354;47.798;12.472;2022-12-19T08:47:20;49.10;;;19.08;;
72379;SDS011;60354;47.798;12.472;2022-12-19T08:49:46;43.10;;;19.08;;
72379;SDS011;60354;47.798;12.472;2022-12-19T08:52:11;61.92;;;24.05;;
72379;SDS011;60354;47.798;12.472;2022-12-19T08:54:36;48.25;;;19.33;;
72379;SDS011;60354;47.798;12.472;2022-12-19T08:57:02;45.85;;;17.50;;
72379;SDS011;60354;47.798;12.472;2022-12-19T08:59:28;40.42;;;17.10;;
72379;SDS011;60354;47.798;12.472;2022-12-19T09:01:53;38.97;;;18.35;;
72379;SDS011;60354;47.798;12.472;2022-12-19T09:04:18;42.60;;;17.80;;
72379;SDS011;60354;47.798;12.472;2022-12-19T09:06:44;43.92;;;19.42;;
72379;SDS011;60354;47.798;12.472;2022-12-19T09:09:09;42.60;;;19.52;;
72379;SDS011;60354;47.798;12.472;2022-12-19T09:11:35;39.72;;;14.00;;
72379;SDS011;60354;47.798;12.472;2022-12-19T09:14:00;31.92;;;14.63;;
72379;SDS011;60354;47.798;12.472;2022-12-19T09:16:26;39.55;;;16.92;;
72379;SDS011;60354;47.798;12.472;2022-12-19T09:18:53;42.70;;;17.52;;
72379;SDS011;60354;47.798;12.472;2022-12-19T09:21:22;33.30;;;14.75;;
72379;SDS011;60354;47.798;12.472;2022-12-19T09:23:51;32.88;;;14.85;;
72379;SDS011;60354;47.798;12.472;2022-12-19T09:26:19;28.30;;;13.68;;
72379;SDS011;60354;47.798;12.472;2022-12-19T09:28:46;35.00;;;15.65;;
72379;SDS011;60354;47.798;12.472;2022-12-19T09:31:16;33.90;;;14.85;;
72379;SDS011;60354;47.798;12.472;2022-12-19T09:33:44;39.83;;;18.25;;
72379;SDS011;60354;47.798;12.472;2022-12-19T09:36:18;37.80;;;18.15;;
72379;SDS011;60354;47.798;12.472;2022-12-19T09:38:47;37.38;;;17.33;;
72379;SDS011;60354;47.798;12.472;2022-12-19T09:49:09;32.83;;;15.75;;
72379;SDS011;60354;47.798;12.472;2022-12-19T09:51:38;35.92;;;16.75;;
72379;SDS011;60354;47.798;12.472;2022-12-19T09:54:43;52.35;;;24.02;;
72379;SDS011;60354;47.798;12.472;2022-12-19T09:57:04;33.88;;;16.13;;
72379;SDS011;60354;47.798;12.472;2022-12-19T10:04:50;39.53;;;19.35;;
72379;SDS011;60354;47.798;12.472;2022-12-19T10:07:21;38.75;;;17.92;;
72379;SDS011;60354;47.798;12.472;2022-12-19T10:09:47;37.55;;;16.75;;
72379;SDS011;60354;47.798;12.472;2022-12-19T10:12:26;40.55;;;18.15;;
72379;SDS011;60354;47.798;12.472;2022-12-19T10:15:16;43.08;;;18.33;;
72379;SDS011;60354;47.798;12.472;2022-12-19T10:20:44;36.33;;;17.02;;
72379;SDS011;60354;47.798;12.472;2022-12-19T10:23:39;37.83;;;16.75;;
72379;SDS011;60354;47.798;12.472;2022-12-19T10:26:19;38.50;;;17.17;;
72379;SDS011;60354;47.798;12.472;2022-12-19T10:31:51;35.63;;;17.13;;
72379;SDS011;60354;47.798;12.472;2022-12-19T10:34:40;37.17;;;18.38;;
72379;SDS011;60354;47.798;12.472;2022-12-19T10:37:19;42.20;;;19.77;;
72379;SDS011;60354;47.798;12.472;2022-12-19T10:42:56;36.05;;;17.00;;
72379;SDS011;60354;47.798;12.472;2022-12-19T10:45:29;47.20;;;21.70;;
72379;SDS011;60354;47.798;12.472;2022-12-19T10:47:58;43.88;;;22.42;;
72379;SDS011;60354;47.798;12.472;2022-12-19T10:50:26;38.38;;;18.23;;
72379;SDS011;60354;47.798;12.472;2022-12-19T11:03:24;36.25;;;17.00;;
72379;SDS011;60354;47.798;12.472;2022-12-19T11:05:51;33.95;;;16.77;;
72379;SDS011;60354;47.798;12.472;2022-12-19T11:08:25;32.10;;;15.73;;
72379;SDS011;60354;47.798;12.472;2022-12-19T11:11:16;31.27;;;14.05;;
72379;SDS011;60354;47.798;12.472;2022-12-19T11:16:07;22.90;;;10.90;;
72379;SDS011;60354;47.798;12.472;2022-12-19T11:18:37;22.27;;;10.57;;
72379;SDS011;60354;47.798;12.472;2022-12-19T11:23:54;20.17;;;10.63;;
72379;SDS011;60354;47.798;12.472;2022-12-19T11:26:56;17.42;;;8.48;;
72379;SDS011;60354;47.798;12.472;2022-12-19T11:29:21;18.70;;;9.27;;
72379;SDS011;60354;47.798;12.472;2022-12-19T11:32:02;17.70;;;8.77;;
72379;SDS011;60354;47.798;12.472;2022-12-19T11:34:31;11.65;;;6.13;;
72379;SDS011;60354;47.798;12.472;2022-12-19T11:39:32;6.22;;;3.60;;
72379;SDS011;60354;47.798;12.472;2022-12-19T11:42:10;6.10;;;2.85;;
72379;SDS011;60354;47.798;12.472;2022-12-19T11:44:50;6.38;;;3.13;;
72379;SDS011;60354;47.798;12.472;2022-12-19T11:50:13;9.05;;;5.25;;
72379;SDS011;60354;47.798;12.472;2022-12-19T11:53:27;6.85;;;3.50;;
72379;SDS011;60354;47.798;12.472;2022-12-19T11:56:04;4.35;;;2.63;;
72379;SDS011;60354;47.798;12.472;2022-12-19T11:58:32;4.60;;;2.22;;
72379;SDS011;60354;47.798;12.472;2022-12-19T12:01:08;4.07;;;2.20;;
72379;SDS011;60354;47.798;12.472;2022-12-19T12:06:23;3.70;;;1.85;;
72379;SDS011;60354;47.798;12.472;2022-12-19T12:20:24;35.00;;;16.73;;
72379;SDS011;60354;47.798;12.472;2022-12-19T12:36:24;28.77;;;14.15;;
72379;SDS011;60354;47.798;12.472;2022-12-19T12:44:41;30.23;;;15.13;;
72379;SDS011;60354;47.798;12.472;2022-12-19T12:52:28;32.47;;;16.30;;
72379;SDS011;60354;47.798;12.472;2022-12-19T12:54:58;31.70;;;15.43;;
72379;SDS011;60354;47.798;12.472;2022-12-19T13:00:12;30.60;;;15.00;;
72379;SDS011;60354;47.798;12.472;2022-12-19T13:02:46;29.08;;;14.50;;
72379;SDS011;60354;47.798;12.472;2022-12-19T13:08:00;25.92;;;13.35;;
72379;SDS011;60354;47.798;12.472;2022-12-19T13:10:26;26.65;;;14.35;;
72379;SDS011;60354;47.798;12.472;2022-12-19T13:39:35;39.30;;;21.08;;
72379;SDS011;60354;47.798;12.472;2022-12-19T13:42:09;32.88;;;16.00;;
72379;SDS011;60354;47.798;12.472;2022-12-19T13:44:54;27.52;;;14.68;;
72379;SDS011;60354;47.798;12.472;2022-12-19T13:47:22;28.10;;;14.60;;
72379;SDS011;60354;47.798;12.472;2022-12-19T13:49:48;29.70;;;14.48;;
72379;SDS011;60354;47.798;12.472;2022-12-19T13:52:16;29.88;;;14.85;;
72379;SDS011;60354;47.798;12.472;2022-12-19T13:54:49;28.42;;;15.50;;
72379;SDS011;60354;47.798;12.472;2022-12-19T13:57:23;28.80;;;15.27;;
72379;SDS011;60354;47.798;12.472;2022-12-19T13:59:59;31.17;;;15.80;;
72379;SDS011;60354;47.798;12.472;2022-12-19T14:02:34;27.67;;;14.70;;
72379;SDS011;60354;47.798;12.472;2022-12-19T14:05:04;29.95;;;14.73;;
72379;SDS011;60354;47.798;12.472;2022-12-19T14:07:38;28.60;;;14.48;;
72379;SDS011;60354;47.798;12.472;2022-12-19T14:10:16;27.42;;;14.00;;
72379;SDS011;60354;47.798;12.472;2022-12-19T14:12:45;24.08;;;14.07;;
72379;SDS011;60354;47.798;12.472;2022-12-19T14:15:32;33.40;;;15.88;;
72379;SDS011;60354;47.798;12.472;2022-12-19T14:17:59;33.08;;;16.88;;
72379;SDS011;60354;47.798;12.472;2022-12-19T14:20:26;35.25;;;17.42;;
72379;SDS011;60354;47.798;12.472;2022-12-19T14:22:56;36.00;;;18.10;;
72379;SDS011;60354;47.798;12.472;2022-12-19T14:25:24;31.92;;;17.08;;
72379;SDS011;60354;47.798;12.472;2022-12-19T14:28:00;34.92;;;17.35;;
72379;SDS011;60354;47.798;12.472;2022-12-19T14:30:30;34.60;;;17.38;;
72379;SDS011;60354;47.798;12.472;2022-12-19T14:33:03;37.55;;;18.08;;
72379;SDS011;60354;47.798;12.472;2022-12-19T14:35:32;43.35;;;19.85;;
72379;SDS011;60354;47.798;12.472;2022-12-19T14:38:02;46.20;;;20.15;;
72379;SDS011;60354;47.798;12.472;2022-12-19T14:40:31;36.15;;;17.70;;
72379;SDS011;60354;47.798;12.472;2022-12-19T14:42:59;30.92;;;15.52;;
72379;SDS011;60354;47.798;12.472;2022-12-19T14:45:47;56.10;;;23.50;;
72379;SDS011;60354;47.798;12.472;2022-12-19T15:02:18;54.42;;;25.90;;
72379;SDS011;60354;47.798;12.472;2022-12-19T15:05:05;37.63;;;18.50;;
72379;SDS011;60354;47.798;12.472;2022-12-19T15:07:32;37.97;;;20.15;;
72379;SDS011;60354;47.798;12.472;2022-12-19T15:10:02;42.90;;;19.50;;
72379;SDS011;60354;47.798;12.472;2022-12-19T15:12:33;45.95;;;21.27;;
72379;SDS011;60354;47.798;12.472;2022-12-19T15:18:12;43.03;;;21.83;;
72379;SDS011;60354;47.798;12.472;2022-12-19T15:20:42;48.20;;;21.65;;
72379;SDS011;60354;47.798;12.472;2022-12-19T15:23:08;45.90;;;20.95;;
72379;SDS011;60354;47.798;12.472;2022-12-19T15:25:33;43.80;;;22.08;;
72379;SDS011;60354;47.798;12.472;2022-12-19T15:27:59;48.42;;;23.10;;
72379;SDS011;60354;47.798;12.472;2022-12-19T15:30:24;43.17;;;19.90;;
72379;SDS011;60354;47.798;12.472;2022-12-19T15:32:55;43.90;;;19.70;;
72379;SDS011;60354;47.798;12.472;2022-12-19T15:35:20;37.08;;;18.13;;
72379;SDS011;60354;47.798;12.472;2022-12-19T15:37:45;39.33;;;18.45;;
72379;SDS011;60354;47.798;12.472;2022-12-19T15:40:15;31.88;;;16.95;;
72379;SDS011;60354;47.798;12.472;2022-12-19T15:42:41;34.63;;;15.85;;
72379;SDS011;60354;47.798;12.472;2022-12-19T15:45:13;28.75;;;15.50;;
72379;SDS011;60354;47.798;12.472;2022-12-19T15:47:40;31.15;;;15.70;;
72379;SDS011;60354;47.798;12.472;2022-12-19T15:50:13;30.42;;;15.63;;
72379;SDS011;60354;47.798;12.472;2022-12-19T15:52:39;32.67;;;16.37;;
72379;SDS011;60354;47.798;12.472;2022-12-19T15:55:05;32.22;;;17.05;;
72379;SDS011;60354;47.798;12.472;2022-12-19T15:57:31;33.08;;;15.55;;
72379;SDS011;60354;47.798;12.472;2022-12-19T16:00:04;28.27;;;14.65;;
72379;SDS011;60354;47.798;12.472;2022-12-19T16:02:32;32.55;;;16.02;;
72379;SDS011;60354;47.798;12.472;2022-12-19T16:04:58;34.65;;;15.63;;
72379;SDS011;60354;47.798;12.472;2022-12-19T16:07:23;26.58;;;14.95;;
72379;SDS011;60354;47.798;12.472;2022-12-19T16:09:49;30.30;;;14.95;;
72379;SDS011;60354;47.798;12.472;2022-12-19T16:12:38;33.50;;;16.23;;
72379;SDS011;60354;47.798;12.472;2022-12-19T16:15:03;31.15;;;15.68;;
72379;SDS011;60354;47.798;12.472;2022-12-19T16:17:29;26.88;;;14.50;;
72379;SDS011;60354;47.798;12.472;2022-12-19T16:19:56;29.95;;;14.88;;
72379;SDS011;60354;47.798;12.472;2022-12-19T16:22:23;24.88;;;13.55;;
72379;SDS011;60354;47.798;12.472;2022-12-19T16:24:51;26.70;;;13.73;;
72379;SDS011;60354;47.798;12.472;2022-12-19T16:27:24;27.92;;;14.60;;
72379;SDS011;60354;47.798;12.472;2022-12-19T16:29:51;29.85;;;13.45;;
72379;SDS011;60354;47.798;12.472;2022-12-19T16:32:17;30.33;;;14.27;;
72379;SDS011;60354;47.798;12.472;2022-12-19T16:34:43;25.48;;;13.85;;
72379;SDS011;60354;47.798;12.472;2022-12-19T16:37:09;24.10;;;13.10;;
72379;SDS011;60354;47.798;12.472;2022-12-19T16:39:35;25.48;;;13.30;;
72379;SDS011;60354;47.798;12.472;2022-12-19T16:42:04;27.40;;;14.32;;
72379;SDS011;60354;47.798;12.472;2022-12-19T16:44:35;26.02;;;13.10;;
72379;SDS011;60354;47.798;12.472;2022-12-19T16:47:00;26.90;;;13.73;;
72379;SDS011;60354;47.798;12.472;2022-12-19T16:49:26;29.98;;;14.57;;
72379;SDS011;60354;47.798;12.472;2022-12-19T16:51:52;27.65;;;14.32;;
72379;SDS011;60354;47.798;12.472;2022-12-19T16:54:17;29.67;;;14.68;;
72379;SDS011;60354;47.798;12.472;2022-12-19T16:56:45;28.33;;;14.45;;
72379;SDS011;60354;47.798;12.472;2022-12-19T17:01:44;37.20;;;17.85;;
72379;SDS011;60354;47.798;12.472;2022-12-19T17:04:19;38.17;;;18.33;;